sensor_id;sensor_type;location;lat;lon;timestamp;P1;durP1;ratioP1;P2;durP2;ratioP2
64653;SDS011;51065;48.884;12.598;2023-08-06T00:01:49;6.63;;;3.22;;
64653;SDS011;51065;48.884;12.598;2023-08-06T00:04:15;5.65;;;2.88;;
64653;SDS011;51065;48.884;12.598;2023-08-06T00:06:41;4.80;;;3.03;;
64653;SDS011;51065;48.884;12.598;2023-08-06T00:09:06;11.73;;;3.67;;
64653;SDS011;51065;48.884;12.598;2023-08-06T00:11:32;5.18;;;3.00;;
64653;SDS011;51065;48.884;12.598;2023-08-06T00:13:57;4.72;;;2.97;;
64653;SDS011;51065;48.884;12.598;2023-08-06T00:16:23;4.50;;;3.05;;
64653;SDS011;51065;48.884;12.598;2023-08-06T00:18:49;5.18;;;3.13;;
64653;SDS011;51065;48.884;12.598;2023-08-06T00:21:15;4.18;;;2.75;;
64653;SDS011;51065;48.884;12.598;2023-08-06T00:23:41;4.47;;;2.85;;
64653;SDS011;51065;48.884;12.598;2023-08-06T00:26:06;6.03;;;3.28;;
64653;SDS011;51065;48.884;12.598;2023-08-06T00:28:32;5.97;;;3.33;;
64653;SDS011;51065;48.884;12.598;2023-08-06T00:30:58;5.78;;;3.40;;
64653;SDS011;51065;48.884;12.598;2023-08-06T00:33:23;6.28;;;3.50;;
64653;SDS011;51065;48.884;12.598;2023-08-06T00:35:49;5.55;;;3.30;;
64653;SDS011;51065;48.884;12.598;2023-08-06T00:38:15;5.57;;;3.10;;
64653;SDS011;51065;48.884;12.598;2023-08-06T00:40:41;5.47;;;3.25;;
64653;SDS011;51065;48.884;12.598;2023-08-06T00:43:07;5.68;;;3.22;;
64653;SDS011;51065;48.884;12.598;2023-08-06T00:45:33;6.25;;;3.75;;
64653;SDS011;51065;48.884;12.598;2023-08-06T00:48:01;6.57;;;3.65;;
64653;SDS011;51065;48.884;12.598;2023-08-06T00:50:28;9.75;;;4.63;;
64653;SDS011;51065;48.884;12.598;2023-08-06T00:52:54;6.97;;;3.97;;
64653;SDS011;51065;48.884;12.598;2023-08-06T00:55:20;7.68;;;4.55;;
64653;SDS011;51065;48.884;12.598;2023-08-06T00:57:46;8.77;;;4.40;;
64653;SDS011;51065;48.884;12.598;2023-08-06T01:00:12;7.97;;;3.78;;
64653;SDS011;51065;48.884;12.598;2023-08-06T01:02:37;8.38;;;4.40;;
64653;SDS011;51065;48.884;12.598;2023-08-06T01:05:03;9.13;;;4.60;;
64653;SDS011;51065;48.884;12.598;2023-08-06T01:07:37;7.40;;;4.05;;
64653;SDS011;51065;48.884;12.598;2023-08-06T01:13:02;8.07;;;4.68;;
64653;SDS011;51065;48.884;12.598;2023-08-06T01:15:46;9.43;;;4.75;;
64653;SDS011;51065;48.884;12.598;2023-08-06T01:18:16;8.90;;;4.75;;
64653;SDS011;51065;48.884;12.598;2023-08-06T01:20:41;7.03;;;4.10;;
64653;SDS011;51065;48.884;12.598;2023-08-06T01:23:07;8.32;;;4.50;;
64653;SDS011;51065;48.884;12.598;2023-08-06T01:25:45;8.70;;;4.78;;
64653;SDS011;51065;48.884;12.598;2023-08-06T01:28:22;8.45;;;4.85;;
64653;SDS011;51065;48.884;12.598;2023-08-06T01:30:58;8.55;;;4.15;;
64653;SDS011;51065;48.884;12.598;2023-08-06T01:33:26;9.02;;;4.32;;
64653;SDS011;51065;48.884;12.598;2023-08-06T01:35:55;7.97;;;4.10;;
64653;SDS011;51065;48.884;12.598;2023-08-06T01:38:22;8.25;;;4.07;;
64653;SDS011;51065;48.884;12.598;2023-08-06T01:40:48;7.97;;;4.40;;
64653;SDS011;51065;48.884;12.598;2023-08-06T01:43:14;7.80;;;4.13;;
64653;SDS011;51065;48.884;12.598;2023-08-06T01:45:39;7.80;;;4.25;;
64653;SDS011;51065;48.884;12.598;2023-08-06T01:48:05;8.48;;;3.85;;
64653;SDS011;51065;48.884;12.598;2023-08-06T01:50:31;8.35;;;4.35;;
64653;SDS011;51065;48.884;12.598;2023-08-06T01:52:56;8.30;;;4.20;;
64653;SDS011;51065;48.884;12.598;2023-08-06T01:55:22;6.30;;;3.88;;
64653;SDS011;51065;48.884;12.598;2023-08-06T01:57:47;7.30;;;4.15;;
64653;SDS011;51065;48.884;12.598;2023-08-06T02:00:13;7.82;;;4.25;;
64653;SDS011;51065;48.884;12.598;2023-08-06T02:02:38;9.48;;;4.45;;
64653;SDS011;51065;48.884;12.598;2023-08-06T02:05:05;13.05;;;4.63;;
64653;SDS011;51065;48.884;12.598;2023-08-06T02:07:31;7.75;;;4.00;;
64653;SDS011;51065;48.884;12.598;2023-08-06T02:09:57;7.85;;;4.20;;
64653;SDS011;51065;48.884;12.598;2023-08-06T02:12:22;9.18;;;4.18;;
64653;SDS011;51065;48.884;12.598;2023-08-06T02:14:48;9.70;;;4.60;;
64653;SDS011;51065;48.884;12.598;2023-08-06T02:17:13;9.20;;;4.60;;
64653;SDS011;51065;48.884;12.598;2023-08-06T02:19:39;7.30;;;4.10;;
64653;SDS011;51065;48.884;12.598;2023-08-06T02:22:05;9.68;;;4.50;;
64653;SDS011;51065;48.884;12.598;2023-08-06T02:24:30;7.30;;;4.00;;
64653;SDS011;51065;48.884;12.598;2023-08-06T02:26:56;6.53;;;3.50;;
64653;SDS011;51065;48.884;12.598;2023-08-06T02:29:21;7.53;;;4.07;;
64653;SDS011;51065;48.884;12.598;2023-08-06T02:31:47;7.53;;;3.80;;
64653;SDS011;51065;48.884;12.598;2023-08-06T02:34:13;7.68;;;4.13;;
64653;SDS011;51065;48.884;12.598;2023-08-06T02:36:38;7.50;;;4.00;;
64653;SDS011;51065;48.884;12.598;2023-08-06T02:39:04;6.60;;;3.50;;
64653;SDS011;51065;48.884;12.598;2023-08-06T02:41:29;8.55;;;4.15;;
64653;SDS011;51065;48.884;12.598;2023-08-06T02:43:55;6.68;;;3.20;;
64653;SDS011;51065;48.884;12.598;2023-08-06T02:46:20;7.97;;;3.80;;
64653;SDS011;51065;48.884;12.598;2023-08-06T02:48:46;7.78;;;3.50;;
64653;SDS011;51065;48.884;12.598;2023-08-06T02:51:11;8.07;;;3.80;;
64653;SDS011;51065;48.884;12.598;2023-08-06T02:53:37;7.38;;;3.70;;
64653;SDS011;51065;48.884;12.598;2023-08-06T02:56:02;7.10;;;3.50;;
64653;SDS011;51065;48.884;12.598;2023-08-06T02:58:28;6.90;;;3.45;;
64653;SDS011;51065;48.884;12.598;2023-08-06T03:01:04;6.10;;;3.95;;
64653;SDS011;51065;48.884;12.598;2023-08-06T03:03:31;8.07;;;3.50;;
64653;SDS011;51065;48.884;12.598;2023-08-06T03:05:57;6.90;;;3.17;;
64653;SDS011;51065;48.884;12.598;2023-08-06T03:08:23;7.60;;;3.72;;
64653;SDS011;51065;48.884;12.598;2023-08-06T03:10:49;6.85;;;3.70;;
64653;SDS011;51065;48.884;12.598;2023-08-06T03:13:16;7.38;;;4.00;;
64653;SDS011;51065;48.884;12.598;2023-08-06T03:15:42;7.78;;;3.65;;
64653;SDS011;51065;48.884;12.598;2023-08-06T03:18:07;6.68;;;3.55;;
64653;SDS011;51065;48.884;12.598;2023-08-06T03:20:33;7.30;;;3.58;;
64653;SDS011;51065;48.884;12.598;2023-08-06T03:22:59;6.22;;;3.65;;
64653;SDS011;51065;48.884;12.598;2023-08-06T03:25:25;5.85;;;3.55;;
64653;SDS011;51065;48.884;12.598;2023-08-06T03:27:50;7.22;;;3.30;;
64653;SDS011;51065;48.884;12.598;2023-08-06T03:30:16;8.63;;;3.60;;
64653;SDS011;51065;48.884;12.598;2023-08-06T03:32:41;6.07;;;3.22;;
64653;SDS011;51065;48.884;12.598;2023-08-06T03:35:07;6.43;;;3.65;;
64653;SDS011;51065;48.884;12.598;2023-08-06T03:37:32;5.65;;;3.50;;
64653;SDS011;51065;48.884;12.598;2023-08-06T03:39:58;5.93;;;3.25;;
64653;SDS011;51065;48.884;12.598;2023-08-06T03:42:23;5.32;;;2.92;;
64653;SDS011;51065;48.884;12.598;2023-08-06T03:44:49;5.35;;;2.90;;
64653;SDS011;51065;48.884;12.598;2023-08-06T03:47:15;3.92;;;2.70;;
64653;SDS011;51065;48.884;12.598;2023-08-06T03:49:40;5.10;;;2.50;;
64653;SDS011;51065;48.884;12.598;2023-08-06T03:52:06;4.85;;;2.65;;
64653;SDS011;51065;48.884;12.598;2023-08-06T03:54:32;3.92;;;2.05;;
64653;SDS011;51065;48.884;12.598;2023-08-06T03:56:57;4.90;;;2.42;;
64653;SDS011;51065;48.884;12.598;2023-08-06T03:59:23;2.50;;;1.90;;
64653;SDS011;51065;48.884;12.598;2023-08-06T04:01:48;2.97;;;1.92;;
64653;SDS011;51065;48.884;12.598;2023-08-06T04:04:14;3.85;;;2.20;;
64653;SDS011;51065;48.884;12.598;2023-08-06T04:06:39;3.28;;;2.17;;
64653;SDS011;51065;48.884;12.598;2023-08-06T04:09:05;3.30;;;1.90;;
64653;SDS011;51065;48.884;12.598;2023-08-06T04:11:30;3.80;;;2.22;;
64653;SDS011;51065;48.884;12.598;2023-08-06T04:13:56;3.67;;;2.30;;
64653;SDS011;51065;48.884;12.598;2023-08-06T04:16:21;3.72;;;1.83;;
64653;SDS011;51065;48.884;12.598;2023-08-06T04:18:47;2.65;;;1.83;;
64653;SDS011;51065;48.884;12.598;2023-08-06T04:21:13;3.20;;;1.90;;
64653;SDS011;51065;48.884;12.598;2023-08-06T04:23:39;5.57;;;2.25;;
64653;SDS011;51065;48.884;12.598;2023-08-06T04:26:04;4.05;;;2.28;;
64653;SDS011;51065;48.884;12.598;2023-08-06T04:28:30;3.28;;;1.95;;
64653;SDS011;51065;48.884;12.598;2023-08-06T04:30:55;3.45;;;1.80;;
64653;SDS011;51065;48.884;12.598;2023-08-06T04:33:21;2.88;;;1.73;;
64653;SDS011;51065;48.884;12.598;2023-08-06T04:35:47;2.78;;;1.95;;
64653;SDS011;51065;48.884;12.598;2023-08-06T04:38:12;4.32;;;1.95;;
64653;SDS011;51065;48.884;12.598;2023-08-06T04:40:38;2.85;;;1.80;;
64653;SDS011;51065;48.884;12.598;2023-08-06T04:43:03;3.95;;;1.90;;
64653;SDS011;51065;48.884;12.598;2023-08-06T04:45:29;3.90;;;1.85;;
64653;SDS011;51065;48.884;12.598;2023-08-06T04:47:54;2.55;;;1.58;;
64653;SDS011;51065;48.884;12.598;2023-08-06T04:50:20;4.55;;;2.30;;
64653;SDS011;51065;48.884;12.598;2023-08-06T04:52:45;3.80;;;2.08;;
64653;SDS011;51065;48.884;12.598;2023-08-06T04:55:11;3.35;;;1.80;;
64653;SDS011;51065;48.884;12.598;2023-08-06T04:57:36;3.53;;;1.90;;
64653;SDS011;51065;48.884;12.598;2023-08-06T05:00:02;3.10;;;1.85;;
64653;SDS011;51065;48.884;12.598;2023-08-06T05:02:29;3.78;;;2.15;;
64653;SDS011;51065;48.884;12.598;2023-08-06T05:04:57;3.53;;;1.90;;
64653;SDS011;51065;48.884;12.598;2023-08-06T05:07:23;3.80;;;2.15;;
64653;SDS011;51065;48.884;12.598;2023-08-06T05:09:48;5.47;;;1.85;;
64653;SDS011;51065;48.884;12.598;2023-08-06T05:12:14;4.35;;;2.10;;
64653;SDS011;51065;48.884;12.598;2023-08-06T05:14:40;3.05;;;1.90;;
64653;SDS011;51065;48.884;12.598;2023-08-06T05:17:05;4.07;;;1.85;;
64653;SDS011;51065;48.884;12.598;2023-08-06T05:19:31;3.38;;;2.00;;
64653;SDS011;51065;48.884;12.598;2023-08-06T05:21:57;2.85;;;1.92;;
64653;SDS011;51065;48.884;12.598;2023-08-06T05:24:22;4.07;;;2.05;;
64653;SDS011;51065;48.884;12.598;2023-08-06T05:26:48;4.72;;;2.13;;
64653;SDS011;51065;48.884;12.598;2023-08-06T05:29:14;3.65;;;2.22;;
64653;SDS011;51065;48.884;12.598;2023-08-06T05:31:41;3.40;;;2.20;;
64653;SDS011;51065;48.884;12.598;2023-08-06T05:34:07;3.35;;;2.20;;
64653;SDS011;51065;48.884;12.598;2023-08-06T05:36:32;4.60;;;2.40;;
64653;SDS011;51065;48.884;12.598;2023-08-06T05:38:58;5.35;;;2.10;;
64653;SDS011;51065;48.884;12.598;2023-08-06T05:41:24;3.40;;;1.92;;
64653;SDS011;51065;48.884;12.598;2023-08-06T05:43:49;6.35;;;2.38;;
64653;SDS011;51065;48.884;12.598;2023-08-06T05:46:15;3.03;;;2.05;;
64653;SDS011;51065;48.884;12.598;2023-08-06T05:48:40;3.90;;;2.40;;
64653;SDS011;51065;48.884;12.598;2023-08-06T05:51:06;2.55;;;1.70;;
64653;SDS011;51065;48.884;12.598;2023-08-06T05:53:31;2.80;;;1.80;;
64653;SDS011;51065;48.884;12.598;2023-08-06T05:55:57;2.97;;;1.75;;
64653;SDS011;51065;48.884;12.598;2023-08-06T05:58:22;3.22;;;1.88;;
64653;SDS011;51065;48.884;12.598;2023-08-06T06:00:51;1.92;;;1.30;;
64653;SDS011;51065;48.884;12.598;2023-08-06T06:03:16;4.40;;;1.65;;
64653;SDS011;51065;48.884;12.598;2023-08-06T06:05:42;4.00;;;1.85;;
64653;SDS011;51065;48.884;12.598;2023-08-06T06:08:08;2.50;;;1.38;;
64653;SDS011;51065;48.884;12.598;2023-08-06T06:10:33;4.13;;;1.73;;
64653;SDS011;51065;48.884;12.598;2023-08-06T06:13:00;2.13;;;1.52;;
64653;SDS011;51065;48.884;12.598;2023-08-06T06:15:25;2.78;;;1.40;;
64653;SDS011;51065;48.884;12.598;2023-08-06T06:17:51;3.28;;;1.25;;
64653;SDS011;51065;48.884;12.598;2023-08-06T06:20:16;2.83;;;1.58;;
64653;SDS011;51065;48.884;12.598;2023-08-06T06:22:42;2.08;;;1.35;;
64653;SDS011;51065;48.884;12.598;2023-08-06T06:25:08;2.50;;;1.40;;
64653;SDS011;51065;48.884;12.598;2023-08-06T06:27:34;2.63;;;1.52;;
64653;SDS011;51065;48.884;12.598;2023-08-06T06:30:00;2.67;;;1.45;;
64653;SDS011;51065;48.884;12.598;2023-08-06T06:32:26;2.08;;;1.20;;
64653;SDS011;51065;48.884;12.598;2023-08-06T06:34:51;1.83;;;1.20;;
64653;SDS011;51065;48.884;12.598;2023-08-06T06:37:17;2.13;;;1.25;;
64653;SDS011;51065;48.884;12.598;2023-08-06T06:39:43;1.48;;;1.10;;
64653;SDS011;51065;48.884;12.598;2023-08-06T06:42:09;1.88;;;1.30;;
64653;SDS011;51065;48.884;12.598;2023-08-06T06:44:35;2.00;;;1.08;;
64653;SDS011;51065;48.884;12.598;2023-08-06T06:47:00;2.63;;;1.45;;
64653;SDS011;51065;48.884;12.598;2023-08-06T06:49:26;2.05;;;1.30;;
64653;SDS011;51065;48.884;12.598;2023-08-06T06:51:51;2.58;;;1.27;;
64653;SDS011;51065;48.884;12.598;2023-08-06T06:54:17;3.95;;;1.92;;
64653;SDS011;51065;48.884;12.598;2023-08-06T06:56:42;2.78;;;1.30;;
64653;SDS011;51065;48.884;12.598;2023-08-06T06:59:08;2.15;;;1.60;;
64653;SDS011;51065;48.884;12.598;2023-08-06T07:01:33;3.95;;;2.42;;
64653;SDS011;51065;48.884;12.598;2023-08-06T07:03:59;5.57;;;2.40;;
64653;SDS011;51065;48.884;12.598;2023-08-06T07:06:29;6.13;;;2.65;;
64653;SDS011;51065;48.884;12.598;2023-08-06T07:08:55;4.38;;;2.50;;
64653;SDS011;51065;48.884;12.598;2023-08-06T07:11:20;4.47;;;2.70;;
64653;SDS011;51065;48.884;12.598;2023-08-06T07:13:46;6.30;;;2.70;;
64653;SDS011;51065;48.884;12.598;2023-08-06T07:16:11;7.93;;;3.38;;
64653;SDS011;51065;48.884;12.598;2023-08-06T07:18:37;7.35;;;3.58;;
64653;SDS011;51065;48.884;12.598;2023-08-06T07:21:03;5.80;;;3.30;;
64653;SDS011;51065;48.884;12.598;2023-08-06T07:23:29;5.38;;;3.25;;
64653;SDS011;51065;48.884;12.598;2023-08-06T07:25:54;6.78;;;3.65;;
64653;SDS011;51065;48.884;12.598;2023-08-06T07:28:20;5.63;;;3.33;;
64653;SDS011;51065;48.884;12.598;2023-08-06T07:30:45;9.43;;;3.65;;
64653;SDS011;51065;48.884;12.598;2023-08-06T07:33:11;6.00;;;3.15;;
64653;SDS011;51065;48.884;12.598;2023-08-06T07:35:37;8.20;;;3.17;;
64653;SDS011;51065;48.884;12.598;2023-08-06T07:38:03;6.03;;;3.10;;
64653;SDS011;51065;48.884;12.598;2023-08-06T07:40:29;4.90;;;2.70;;
64653;SDS011;51065;48.884;12.598;2023-08-06T07:42:54;6.35;;;2.70;;
64653;SDS011;51065;48.884;12.598;2023-08-06T07:45:20;4.32;;;2.50;;
64653;SDS011;51065;48.884;12.598;2023-08-06T07:47:46;3.70;;;2.30;;
64653;SDS011;51065;48.884;12.598;2023-08-06T07:50:12;3.92;;;2.00;;
64653;SDS011;51065;48.884;12.598;2023-08-06T07:52:38;3.88;;;2.00;;
64653;SDS011;51065;48.884;12.598;2023-08-06T07:55:04;3.20;;;1.92;;
64653;SDS011;51065;48.884;12.598;2023-08-06T07:57:33;4.28;;;1.90;;
64653;SDS011;51065;48.884;12.598;2023-08-06T07:59:59;3.72;;;1.90;;
64653;SDS011;51065;48.884;12.598;2023-08-06T08:02:26;2.65;;;1.90;;
64653;SDS011;51065;48.884;12.598;2023-08-06T08:04:52;5.90;;;1.80;;
64653;SDS011;51065;48.884;12.598;2023-08-06T08:07:18;3.83;;;1.70;;
64653;SDS011;51065;48.884;12.598;2023-08-06T08:09:43;3.05;;;1.90;;
64653;SDS011;51065;48.884;12.598;2023-08-06T08:12:09;3.30;;;1.50;;
64653;SDS011;51065;48.884;12.598;2023-08-06T08:14:34;1.88;;;1.38;;
64653;SDS011;51065;48.884;12.598;2023-08-06T08:17:04;2.25;;;1.60;;
64653;SDS011;51065;48.884;12.598;2023-08-06T08:19:31;3.30;;;1.52;;
64653;SDS011;51065;48.884;12.598;2023-08-06T08:21:57;3.72;;;1.60;;
64653;SDS011;51065;48.884;12.598;2023-08-06T08:24:23;3.38;;;1.52;;
64653;SDS011;51065;48.884;12.598;2023-08-06T08:26:52;2.28;;;1.67;;
64653;SDS011;51065;48.884;12.598;2023-08-06T08:29:19;2.20;;;1.30;;
64653;SDS011;51065;48.884;12.598;2023-08-06T08:31:45;3.63;;;1.88;;
64653;SDS011;51065;48.884;12.598;2023-08-06T08:34:13;3.65;;;1.30;;
64653;SDS011;51065;48.884;12.598;2023-08-06T08:36:40;2.67;;;1.50;;
64653;SDS011;51065;48.884;12.598;2023-08-06T08:39:05;2.05;;;1.20;;
64653;SDS011;51065;48.884;12.598;2023-08-06T08:41:31;2.17;;;1.27;;
64653;SDS011;51065;48.884;12.598;2023-08-06T08:43:58;4.65;;;1.80;;
64653;SDS011;51065;48.884;12.598;2023-08-06T08:46:31;3.85;;;1.30;;
64653;SDS011;51065;48.884;12.598;2023-08-06T08:48:58;3.13;;;1.17;;
64653;SDS011;51065;48.884;12.598;2023-08-06T08:51:25;2.50;;;1.15;;
64653;SDS011;51065;48.884;12.598;2023-08-06T08:53:53;3.30;;;1.33;;
64653;SDS011;51065;48.884;12.598;2023-08-06T08:56:22;1.83;;;1.00;;
64653;SDS011;51065;48.884;12.598;2023-08-06T08:58:48;1.75;;;1.10;;
64653;SDS011;51065;48.884;12.598;2023-08-06T09:01:14;3.00;;;1.20;;
64653;SDS011;51065;48.884;12.598;2023-08-06T09:03:40;2.08;;;1.30;;
64653;SDS011;51065;48.884;12.598;2023-08-06T09:06:08;2.72;;;1.00;;
64653;SDS011;51065;48.884;12.598;2023-08-06T09:08:37;1.88;;;0.90;;
64653;SDS011;51065;48.884;12.598;2023-08-06T09:11:09;1.52;;;1.10;;
64653;SDS011;51065;48.884;12.598;2023-08-06T09:13:37;4.25;;;1.50;;
64653;SDS011;51065;48.884;12.598;2023-08-06T09:16:04;3.58;;;1.38;;
64653;SDS011;51065;48.884;12.598;2023-08-06T09:18:30;1.20;;;0.90;;
64653;SDS011;51065;48.884;12.598;2023-08-06T09:20:56;3.20;;;1.17;;
64653;SDS011;51065;48.884;12.598;2023-08-06T09:23:29;2.63;;;1.00;;
64653;SDS011;51065;48.884;12.598;2023-08-06T09:25:56;2.38;;;1.10;;
64653;SDS011;51065;48.884;12.598;2023-08-06T09:28:22;3.30;;;1.27;;
64653;SDS011;51065;48.884;12.598;2023-08-06T09:30:49;1.50;;;0.90;;
64653;SDS011;51065;48.884;12.598;2023-08-06T09:33:18;1.70;;;0.90;;
64653;SDS011;51065;48.884;12.598;2023-08-06T09:35:45;1.67;;;0.95;;
64653;SDS011;51065;48.884;12.598;2023-08-06T09:38:11;1.83;;;0.90;;
64653;SDS011;51065;48.884;12.598;2023-08-06T09:40:38;1.30;;;0.90;;
64653;SDS011;51065;48.884;12.598;2023-08-06T09:43:04;2.65;;;0.98;;
64653;SDS011;51065;48.884;12.598;2023-08-06T09:45:33;1.42;;;0.70;;
64653;SDS011;51065;48.884;12.598;2023-08-06T09:48:01;3.13;;;1.15;;
64653;SDS011;51065;48.884;12.598;2023-08-06T09:50:32;1.05;;;0.75;;
64653;SDS011;51065;48.884;12.598;2023-08-06T09:53:01;0.85;;;0.52;;
64653;SDS011;51065;48.884;12.598;2023-08-06T09:55:28;0.85;;;0.80;;
64653;SDS011;51065;48.884;12.598;2023-08-06T09:57:53;3.70;;;1.10;;
64653;SDS011;51065;48.884;12.598;2023-08-06T10:00:20;1.58;;;0.85;;
64653;SDS011;51065;48.884;12.598;2023-08-06T10:02:46;1.10;;;0.90;;
64653;SDS011;51065;48.884;12.598;2023-08-06T10:05:11;1.00;;;0.80;;
64653;SDS011;51065;48.884;12.598;2023-08-06T10:07:37;3.25;;;0.80;;
64653;SDS011;51065;48.884;12.598;2023-08-06T10:10:05;2.65;;;0.98;;
64653;SDS011;51065;48.884;12.598;2023-08-06T10:12:32;0.70;;;0.57;;
64653;SDS011;51065;48.884;12.598;2023-08-06T10:15:02;2.97;;;0.88;;
64653;SDS011;51065;48.884;12.598;2023-08-06T10:17:31;4.38;;;0.90;;
64653;SDS011;51065;48.884;12.598;2023-08-06T10:19:58;1.25;;;0.70;;
64653;SDS011;51065;48.884;12.598;2023-08-06T10:22:24;1.20;;;0.57;;
64653;SDS011;51065;48.884;12.598;2023-08-06T10:24:53;1.50;;;0.63;;
64653;SDS011;51065;48.884;12.598;2023-08-06T10:27:21;0.90;;;0.60;;
64653;SDS011;51065;48.884;12.598;2023-08-06T10:29:52;1.17;;;0.60;;
64653;SDS011;51065;48.884;12.598;2023-08-06T10:32:18;0.80;;;0.65;;
64653;SDS011;51065;48.884;12.598;2023-08-06T10:34:53;1.40;;;0.52;;
64653;SDS011;51065;48.884;12.598;2023-08-06T10:39:59;2.58;;;0.88;;
64653;SDS011;51065;48.884;12.598;2023-08-06T10:42:27;0.90;;;0.47;;
64653;SDS011;51065;48.884;12.598;2023-08-06T10:47:43;2.20;;;0.45;;
64653;SDS011;51065;48.884;12.598;2023-08-06T10:50:11;0.73;;;0.30;;
64653;SDS011;51065;48.884;12.598;2023-08-06T10:52:38;2.15;;;0.40;;
64653;SDS011;51065;48.884;12.598;2023-08-06T10:55:04;3.03;;;0.50;;
64653;SDS011;51065;48.884;12.598;2023-08-06T10:57:30;0.88;;;0.38;;
64653;SDS011;51065;48.884;12.598;2023-08-06T10:59:56;0.77;;;0.30;;
64653;SDS011;51065;48.884;12.598;2023-08-06T11:02:21;1.52;;;0.30;;
64653;SDS011;51065;48.884;12.598;2023-08-06T11:04:48;1.55;;;0.50;;
64653;SDS011;51065;48.884;12.598;2023-08-06T11:07:14;0.45;;;0.30;;
64653;SDS011;51065;48.884;12.598;2023-08-06T11:09:39;1.20;;;0.47;;
64653;SDS011;51065;48.884;12.598;2023-08-06T11:12:11;0.43;;;0.35;;
64653;SDS011;51065;48.884;12.598;2023-08-06T11:14:43;0.63;;;0.40;;
64653;SDS011;51065;48.884;12.598;2023-08-06T11:17:15;1.88;;;0.45;;
64653;SDS011;51065;48.884;12.598;2023-08-06T11:19:40;0.88;;;0.40;;
64653;SDS011;51065;48.884;12.598;2023-08-06T11:22:06;1.55;;;0.60;;
64653;SDS011;51065;48.884;12.598;2023-08-06T11:24:32;0.95;;;0.52;;
64653;SDS011;51065;48.884;12.598;2023-08-06T11:26:57;7.15;;;1.70;;
64653;SDS011;51065;48.884;12.598;2023-08-06T11:29:23;1.58;;;0.50;;
64653;SDS011;51065;48.884;12.598;2023-08-06T11:31:49;3.53;;;0.80;;
64653;SDS011;51065;48.884;12.598;2023-08-06T11:34:14;1.08;;;0.50;;
64653;SDS011;51065;48.884;12.598;2023-08-06T11:36:41;1.20;;;0.60;;
64653;SDS011;51065;48.884;12.598;2023-08-06T11:39:07;1.20;;;0.57;;
64653;SDS011;51065;48.884;12.598;2023-08-06T11:41:35;0.95;;;0.55;;
64653;SDS011;51065;48.884;12.598;2023-08-06T11:44:03;1.10;;;0.55;;
64653;SDS011;51065;48.884;12.598;2023-08-06T11:46:29;1.10;;;0.38;;
64653;SDS011;51065;48.884;12.598;2023-08-06T11:48:55;0.40;;;0.20;;
64653;SDS011;51065;48.884;12.598;2023-08-06T11:51:27;0.35;;;0.20;;
64653;SDS011;51065;48.884;12.598;2023-08-06T11:53:56;0.30;;;0.30;;
64653;SDS011;51065;48.884;12.598;2023-08-06T11:56:24;0.80;;;0.50;;
64653;SDS011;51065;48.884;12.598;2023-08-06T11:58:51;1.50;;;0.65;;
64653;SDS011;51065;48.884;12.598;2023-08-06T12:01:17;1.73;;;0.50;;
64653;SDS011;51065;48.884;12.598;2023-08-06T12:03:43;1.02;;;0.50;;
64653;SDS011;51065;48.884;12.598;2023-08-06T12:06:08;0.47;;;0.40;;
64653;SDS011;51065;48.884;12.598;2023-08-06T12:08:34;1.38;;;0.63;;
64653;SDS011;51065;48.884;12.598;2023-08-06T12:10:59;2.60;;;0.60;;
64653;SDS011;51065;48.884;12.598;2023-08-06T12:13:25;1.30;;;0.35;;
64653;SDS011;51065;48.884;12.598;2023-08-06T12:15:51;1.38;;;0.50;;
64653;SDS011;51065;48.884;12.598;2023-08-06T12:18:19;3.83;;;0.43;;
64653;SDS011;51065;48.884;12.598;2023-08-06T12:20:45;0.93;;;0.35;;
64653;SDS011;51065;48.884;12.598;2023-08-06T12:23:10;0.98;;;0.28;;
64653;SDS011;51065;48.884;12.598;2023-08-06T12:25:40;0.93;;;0.30;;
64653;SDS011;51065;48.884;12.598;2023-08-06T12:28:06;1.13;;;0.38;;
64653;SDS011;51065;48.884;12.598;2023-08-06T12:30:32;5.22;;;0.32;;
64653;SDS011;51065;48.884;12.598;2023-08-06T12:32:58;0.98;;;0.40;;
64653;SDS011;51065;48.884;12.598;2023-08-06T12:35:24;0.60;;;0.32;;
64653;SDS011;51065;48.884;12.598;2023-08-06T12:37:50;0.43;;;0.30;;
64653;SDS011;51065;48.884;12.598;2023-08-06T12:40:19;3.08;;;0.20;;
64653;SDS011;51065;48.884;12.598;2023-08-06T12:42:45;1.63;;;0.22;;
64653;SDS011;51065;48.884;12.598;2023-08-06T12:45:11;2.05;;;0.30;;
64653;SDS011;51065;48.884;12.598;2023-08-06T12:47:36;0.52;;;0.30;;
64653;SDS011;51065;48.884;12.598;2023-08-06T12:50:02;0.30;;;0.20;;
64653;SDS011;51065;48.884;12.598;2023-08-06T12:52:28;0.22;;;0.20;;
64653;SDS011;51065;48.884;12.598;2023-08-06T12:54:54;0.25;;;0.17;;
64653;SDS011;51065;48.884;12.598;2023-08-06T12:57:19;1.02;;;0.22;;
64653;SDS011;51065;48.884;12.598;2023-08-06T12:59:45;0.32;;;0.10;;
64653;SDS011;51065;48.884;12.598;2023-08-06T13:02:11;0.32;;;0.10;;
64653;SDS011;51065;48.884;12.598;2023-08-06T13:04:36;0.35;;;0.10;;
64653;SDS011;51065;48.884;12.598;2023-08-06T13:07:02;0.10;;;0.10;;
64653;SDS011;51065;48.884;12.598;2023-08-06T13:09:27;0.10;;;0.10;;
64653;SDS011;51065;48.884;12.598;2023-08-06T13:11:53;0.32;;;0.20;;
64653;SDS011;51065;48.884;12.598;2023-08-06T13:14:18;0.03;;;0.03;;
64653;SDS011;51065;48.884;12.598;2023-08-06T13:16:44;0.10;;;0.10;;
64653;SDS011;51065;48.884;12.598;2023-08-06T13:19:10;0.32;;;0.20;;
64653;SDS011;51065;48.884;12.598;2023-08-06T13:24:06;0.20;;;0.10;;
64653;SDS011;51065;48.884;12.598;2023-08-06T13:26:31;0.10;;;0.10;;
64653;SDS011;51065;48.884;12.598;2023-08-06T13:28:58;3.03;;;0.28;;
64653;SDS011;51065;48.884;12.598;2023-08-06T13:31:24;0.10;;;0.10;;
64653;SDS011;51065;48.884;12.598;2023-08-06T13:33:51;0.20;;;0.20;;
64653;SDS011;51065;48.884;12.598;2023-08-06T13:36:17;0.30;;;0.10;;
64653;SDS011;51065;48.884;12.598;2023-08-06T13:38:42;0.15;;;0.15;;
64653;SDS011;51065;48.884;12.598;2023-08-06T13:41:08;0.22;;;0.22;;
64653;SDS011;51065;48.884;12.598;2023-08-06T13:43:34;0.40;;;0.10;;
64653;SDS011;51065;48.884;12.598;2023-08-06T13:45:59;0.30;;;0.20;;
64653;SDS011;51065;48.884;12.598;2023-08-06T13:48:25;0.20;;;0.17;;
64653;SDS011;51065;48.884;12.598;2023-08-06T13:50:50;0.35;;;0.20;;
64653;SDS011;51065;48.884;12.598;2023-08-06T13:53:16;1.73;;;0.98;;
64653;SDS011;51065;48.884;12.598;2023-08-06T13:55:41;12.45;;;6.75;;
64653;SDS011;51065;48.884;12.598;2023-08-06T13:58:07;1.65;;;0.30;;
64653;SDS011;51065;48.884;12.598;2023-08-06T14:00:35;0.45;;;0.20;;
64653;SDS011;51065;48.884;12.598;2023-08-06T14:03:01;0.77;;;0.20;;
64653;SDS011;51065;48.884;12.598;2023-08-06T14:05:27;0.60;;;0.52;;
64653;SDS011;51065;48.884;12.598;2023-08-06T14:07:52;0.50;;;0.40;;
64653;SDS011;51065;48.884;12.598;2023-08-06T14:10:18;0.43;;;0.40;;
64653;SDS011;51065;48.884;12.598;2023-08-06T14:12:43;0.73;;;0.30;;
64653;SDS011;51065;48.884;12.598;2023-08-06T14:15:10;0.35;;;0.25;;
64653;SDS011;51065;48.884;12.598;2023-08-06T14:17:36;1.27;;;0.10;;
64653;SDS011;51065;48.884;12.598;2023-08-06T14:20:01;1.38;;;0.20;;
64653;SDS011;51065;48.884;12.598;2023-08-06T14:22:29;9.65;;;6.93;;
64653;SDS011;51065;48.884;12.598;2023-08-06T14:24:58;0.30;;;0.22;;
64653;SDS011;51065;48.884;12.598;2023-08-06T14:27:24;5.30;;;2.75;;
64653;SDS011;51065;48.884;12.598;2023-08-06T14:29:50;1.20;;;0.30;;
64653;SDS011;51065;48.884;12.598;2023-08-06T14:32:15;1.27;;;0.30;;
64653;SDS011;51065;48.884;12.598;2023-08-06T14:34:43;0.70;;;0.40;;
64653;SDS011;51065;48.884;12.598;2023-08-06T14:37:09;2.00;;;0.30;;
64653;SDS011;51065;48.884;12.598;2023-08-06T14:39:34;0.10;;;0.10;;